createdAt,value
2022-11-23T00:00:48.725Z,6.8
2022-11-23T00:02:05.665Z,6.7
2022-11-23T00:03:22.554Z,6.8
2022-11-23T00:04:39.673Z,6.7
2022-11-23T00:05:56.573Z,6.8
2022-11-23T00:07:13.563Z,6.9
2022-11-23T00:08:30.632Z,6.9
2022-11-23T00:09:48.527Z,6.9
2022-11-23T00:11:05.557Z,6.9
2022-11-23T00:12:22.631Z,6.9
2022-11-23T00:13:39.539Z,7
2022-11-23T00:14:56.543Z,7.1
2022-11-23T00:16:13.684Z,7.1
2022-11-23T00:17:30.548Z,7.1
2022-11-23T00:18:47.552Z,7.1
2022-11-23T00:20:04.571Z,7.2
2022-11-23T00:21:21.571Z,7.2
2022-11-23T00:22:38.586Z,7
2022-11-23T00:23:55.554Z,6.8
2022-11-23T00:25:12.623Z,6.5
2022-11-23T00:26:29.685Z,6.3
2022-11-23T00:27:46.569Z,6.1
2022-11-23T00:29:03.556Z,6.1
2022-11-23T00:30:20.553Z,6.1
2022-11-23T00:31:37.616Z,6.2
2022-11-23T00:32:54.588Z,6.2
2022-11-23T00:34:11.563Z,6.4
2022-11-23T00:35:28.575Z,6.5
2022-11-23T00:36:45.597Z,6.5
2022-11-23T00:38:02.569Z,6.6
2022-11-23T00:39:19.572Z,6.6
2022-11-23T00:40:36.579Z,6.6
2022-11-23T00:41:53.600Z,6.7
2022-11-23T00:43:10.628Z,6.6
2022-11-23T00:44:27.577Z,6.6
2022-11-23T00:45:44.583Z,6.6
2022-11-23T00:47:01.616Z,6.7
2022-11-23T00:48:18.610Z,6.7
2022-11-23T00:49:35.609Z,6.7
2022-11-23T00:50:53.555Z,6.6
2022-11-23T00:52:11.099Z,6.5
2022-11-23T00:53:27.587Z,6.5
2022-11-23T00:54:44.618Z,6.5
2022-11-23T00:56:01.635Z,6.6
2022-11-23T00:57:18.602Z,6.7
2022-11-23T00:58:35.598Z,6.9
2022-11-23T00:59:52.624Z,7
2022-11-23T01:01:09.752Z,7.1
2022-11-23T01:02:26.642Z,7.1
2022-11-23T01:03:43.612Z,7.2
2022-11-23T01:05:00.717Z,7.1
2022-11-23T01:06:17.610Z,6.9
2022-11-23T01:07:34.670Z,6.8
2022-11-23T01:08:51.610Z,6.7
2022-11-23T01:10:08.611Z,6.5
2022-11-23T01:11:25.619Z,6.2
2022-11-23T01:12:42.645Z,6.2
2022-11-23T01:13:59.620Z,6.1
2022-11-23T01:15:16.612Z,6
2022-11-23T01:16:33.623Z,6
2022-11-23T01:17:50.749Z,6.2
2022-11-23T01:19:07.898Z,6.3
2022-11-23T01:20:24.682Z,6.3
2022-11-23T01:21:41.636Z,6.3
2022-11-23T01:22:58.694Z,6.4
2022-11-23T01:24:15.655Z,6.6
2022-11-23T01:25:32.653Z,6.7
2022-11-23T01:26:49.750Z,6.8
2022-11-23T01:28:06.713Z,6.9
2022-11-23T01:29:23.652Z,7
2022-11-23T01:30:41.135Z,7.1
2022-11-23T01:31:57.655Z,7.2
2022-11-23T01:33:14.697Z,7.1
2022-11-23T01:34:31.643Z,7.1
2022-11-23T01:35:48.949Z,7.1
2022-11-23T01:37:05.684Z,7.1
2022-11-23T01:38:22.653Z,7.2
2022-11-23T01:39:39.650Z,7.1
2022-11-23T01:40:56.676Z,7.1
2022-11-23T01:42:17.670Z,7.1
2022-11-23T01:43:31.504Z,7.1
2022-11-23T01:44:49.331Z,7
2022-11-23T01:46:06.893Z,7.1
2022-11-23T01:47:23.730Z,7.1
2022-11-23T01:48:41.499Z,7.1
2022-11-23T01:49:58.659Z,7.1
2022-11-23T01:51:15.698Z,7.2
2022-11-23T01:52:32.741Z,7.2
2022-11-23T01:53:49.663Z,7.2
2022-11-23T01:55:08.554Z,7.3
2022-11-23T01:56:24.311Z,7.4
2022-11-23T01:57:41.706Z,7.5
2022-11-23T01:58:58.681Z,7.4
2022-11-23T02:00:16.523Z,7.2
2022-11-23T02:01:33.771Z,7
2022-11-23T02:02:50.683Z,7
2022-11-23T02:04:07.708Z,6.9
2022-11-23T02:05:24.694Z,6.9
2022-11-23T02:06:41.752Z,7.1
2022-11-23T02:07:58.899Z,7.1
2022-11-23T02:09:15.701Z,7.3
2022-11-23T02:10:32.694Z,7.4
2022-11-23T02:11:50.528Z,7.5
2022-11-23T02:13:07.723Z,7.6
2022-11-23T02:14:24.728Z,7.7
2022-11-23T02:15:41.707Z,7.9
2022-11-23T02:16:59.392Z,7.9
2022-11-23T02:18:16.731Z,7.9
2022-11-23T02:19:33.988Z,7.9
2022-11-23T02:20:50.711Z,7.9
2022-11-23T02:22:07.808Z,7.8
2022-11-23T02:23:24.713Z,7.8
2022-11-23T02:24:41.712Z,7.8
2022-11-23T02:25:58.716Z,7.7
2022-11-23T02:27:15.807Z,7.5
2022-11-23T02:28:32.723Z,7.4
2022-11-23T02:29:49.902Z,7.3
2022-11-23T02:31:06.710Z,7.4
2022-11-23T02:32:23.792Z,7.4
2022-11-23T02:33:40.746Z,7.5
2022-11-23T02:34:57.741Z,7.6
2022-11-23T02:36:14.728Z,7.6
2022-11-23T02:37:31.730Z,7.6
2022-11-23T02:38:48.860Z,7.5
2022-11-23T02:40:06.084Z,7.4
2022-11-23T02:41:22.794Z,7.3
2022-11-23T02:44:27.733Z,7.3
2022-11-23T02:45:44.746Z,7
2022-11-23T02:47:01.847Z,6.8
2022-11-23T02:48:23.510Z,6.6
2022-11-23T02:49:40.903Z,6.5
2022-11-23T02:50:57.774Z,6.3
2022-11-23T02:52:14.953Z,6.2
2022-11-23T02:53:31.751Z,6.2
2022-11-23T02:54:48.972Z,6.3
2022-11-23T02:56:06.604Z,6.4
2022-11-23T02:57:23.753Z,6.5
2022-11-23T02:58:40.760Z,6.7
2022-11-23T02:59:57.811Z,6.8
2022-11-23T03:01:14.792Z,6.9
2022-11-23T03:02:31.827Z,7
2022-11-23T03:03:48.762Z,7.1
2022-11-23T03:05:05.799Z,7.1
2022-11-23T03:06:22.855Z,7.2
2022-11-23T03:07:39.938Z,7.2
2022-11-23T03:08:56.767Z,7.2
2022-11-23T03:10:13.824Z,7.2
2022-11-23T03:11:30.789Z,7.2
2022-11-23T03:12:47.818Z,7.1
2022-11-23T03:14:05.010Z,7.1
2022-11-23T03:15:21.818Z,7.2
2022-11-23T03:16:38.792Z,7.2
2022-11-23T03:17:55.864Z,7.3
2022-11-23T03:19:12.771Z,7.3
2022-11-23T03:20:29.871Z,7.4
2022-11-23T03:21:46.801Z,7.4
2022-11-23T03:23:03.806Z,7.4
2022-11-23T03:24:20.860Z,7.4
2022-11-23T03:25:37.825Z,7.4
2022-11-23T03:26:55.449Z,7.5
2022-11-23T03:28:12.799Z,7.6
2022-11-23T03:29:30.254Z,7.6
2022-11-23T03:30:46.830Z,7.7
2022-11-23T03:32:03.821Z,7.7
2022-11-23T03:33:20.802Z,7.6
2022-11-23T03:34:37.835Z,7.5
2022-11-23T03:35:54.937Z,7.2
2022-11-23T03:37:11.895Z,6.9
2022-11-23T03:38:28.795Z,6.7
2022-11-23T03:39:47.458Z,6.5
2022-11-23T03:41:02.812Z,6.4
2022-11-23T03:42:19.888Z,6.3
2022-11-23T03:43:36.829Z,6.1
2022-11-23T03:44:53.822Z,6.1
2022-11-23T03:46:10.958Z,6
2022-11-23T03:47:27.861Z,6
2022-11-23T03:48:44.830Z,6.1
2022-11-23T03:50:01.856Z,6.2
2022-11-23T03:51:18.824Z,6.3
2022-11-23T03:52:35.907Z,6.4
2022-11-23T03:53:52.830Z,6.5
2022-11-23T03:55:09.858Z,6.6
2022-11-23T03:56:26.833Z,6.6
2022-11-23T03:57:43.823Z,6.6
2022-11-23T03:59:00.863Z,6.7
2022-11-23T04:00:17.896Z,6.7
2022-11-23T04:01:34.862Z,6.7
2022-11-23T04:02:51.836Z,6.8
2022-11-23T04:04:08.844Z,6.9
2022-11-23T04:05:25.895Z,7
2022-11-23T04:06:42.838Z,7
2022-11-23T04:07:59.933Z,6.9
2022-11-23T04:09:16.856Z,6.8
2022-11-23T04:10:33.856Z,6.7
2022-11-23T04:11:50.846Z,6.7
2022-11-23T04:13:07.880Z,6.8
2022-11-23T04:14:24.856Z,7
2022-11-23T04:15:41.858Z,7
2022-11-23T04:16:58.849Z,6.8
2022-11-23T04:18:15.911Z,6.7
2022-11-23T04:19:33.099Z,6.5
2022-11-23T04:20:49.885Z,6.6
2022-11-23T04:22:06.856Z,6.6
2022-11-23T04:23:23.920Z,6.7
2022-11-23T04:24:40.863Z,6.8
2022-11-23T04:25:58.816Z,6.7
2022-11-23T04:27:16.334Z,6.5
2022-11-23T04:28:32.897Z,6.2
2022-11-23T04:29:49.875Z,6
2022-11-23T04:31:06.902Z,5.7
2022-11-23T04:32:23.964Z,5.7
2022-11-23T04:33:40.874Z,5.7
2022-11-23T04:34:57.877Z,5.8
2022-11-23T04:36:14.984Z,6.1
2022-11-23T04:37:31.893Z,6.4
2022-11-23T04:38:48.965Z,6.5
2022-11-23T04:40:05.965Z,6.6
2022-11-23T04:41:22.915Z,6.7
2022-11-23T04:42:39.882Z,6.8
2022-11-23T04:43:56.939Z,6.9
2022-11-23T04:45:13.893Z,7
2022-11-23T04:46:30.889Z,7
2022-11-23T04:47:47.918Z,7.1
2022-11-23T04:49:04.921Z,7.3
2022-11-23T04:50:21.996Z,7.4
2022-11-23T04:51:38.901Z,7.5
2022-11-23T04:52:55.957Z,7.6
2022-11-23T04:54:13.005Z,7.6
2022-11-23T04:55:29.904Z,7.6
2022-11-23T04:56:46.912Z,7.6
2022-11-23T04:58:03.935Z,7.6
2022-11-23T04:59:20.940Z,7.5
2022-11-23T05:00:37.978Z,7.5
2022-11-23T05:01:54.906Z,7.5
2022-11-23T05:03:11.920Z,7.5
2022-11-23T05:04:28.947Z,7.5
2022-11-23T05:05:45.916Z,7.5
2022-11-23T05:07:03.804Z,7.6
2022-11-23T05:08:21.654Z,7.6
2022-11-23T05:09:39.081Z,7.6
2022-11-23T05:10:56.458Z,7.6
2022-11-23T05:12:13.375Z,7.4
2022-11-23T05:13:29.947Z,7.2
2022-11-23T05:14:46.941Z,7
2022-11-23T05:16:03.995Z,6.8
2022-11-23T05:17:21.346Z,6.6
2022-11-23T05:18:37.967Z,6.5
2022-11-23T05:19:55.027Z,6.5
2022-11-23T05:21:11.962Z,6.7
2022-11-23T05:22:29.412Z,6.8
2022-11-23T05:23:45.981Z,7
2022-11-23T05:25:02.999Z,7
2022-11-23T05:26:20.001Z,7.1
2022-11-23T05:27:37.956Z,7.2
2022-11-23T05:28:57.022Z,7.2
2022-11-23T05:30:14.037Z,7.2
2022-11-23T05:31:30.979Z,7.1
2022-11-23T05:32:47.953Z,7.1
2022-11-23T05:34:04.985Z,7.1
2022-11-23T05:35:21.970Z,7.1
2022-11-23T05:36:42.181Z,7.1
2022-11-23T05:37:56.581Z,7.1
2022-11-23T05:39:14.024Z,7
2022-11-23T05:40:31.100Z,7.1
2022-11-23T05:41:47.962Z,7.2
2022-11-23T05:43:05.036Z,7.3
2022-11-23T05:44:22.004Z,7.4
2022-11-23T05:45:39.805Z,7.5
2022-11-23T05:46:57.007Z,7.5
2022-11-23T05:48:14.007Z,7.5
2022-11-23T05:49:31.155Z,7.5
2022-11-23T05:50:47.980Z,7.6
2022-11-23T05:52:05.700Z,7.4
2022-11-23T05:53:22.981Z,7.3
2022-11-23T05:54:39.998Z,7.2
2022-11-23T05:55:57.007Z,7.1
2022-11-23T05:57:13.991Z,6.9
2022-11-23T05:58:31.057Z,6.8
2022-11-23T05:59:48.010Z,6.6
2022-11-23T06:01:05.006Z,6.5
2022-11-23T06:02:22.031Z,6.4
2022-11-23T06:03:39.111Z,6.3
2022-11-23T06:04:56.052Z,6.1
2022-11-23T06:06:13.000Z,6.1
2022-11-23T06:07:30.699Z,6.3
2022-11-23T06:08:49.284Z,6.4
2022-11-23T06:10:05.366Z,6.6
2022-11-23T06:11:22.093Z,6.7
2022-11-23T06:12:39.237Z,6.8
2022-11-23T06:13:56.181Z,6.8
2022-11-23T06:15:13.049Z,6.8
2022-11-23T06:16:30.172Z,6.7
2022-11-23T06:17:47.009Z,6.7
2022-11-23T06:19:04.012Z,6.7
2022-11-23T06:20:21.013Z,6.8
2022-11-23T06:21:38.078Z,7
2022-11-23T06:22:55.008Z,6.9
2022-11-23T06:24:12.038Z,6.9
2022-11-23T06:25:29.015Z,6.7
2022-11-23T06:26:46.118Z,6.4
2022-11-23T06:28:03.171Z,6.2
2022-11-23T06:29:20.051Z,6.1
2022-11-23T06:30:37.036Z,6.2
2022-11-23T06:31:54.075Z,6.2
2022-11-23T06:33:11.040Z,6.2
2022-11-23T06:34:28.029Z,6.1
2022-11-23T06:35:45.111Z,5.9
2022-11-23T06:37:02.098Z,5.8
2022-11-23T06:38:19.035Z,5.9
2022-11-23T06:39:36.200Z,6
2022-11-23T06:40:53.049Z,6.2
2022-11-23T06:42:36.924Z,6.3
2022-11-23T06:43:28.113Z,6.4
2022-11-23T06:44:45.110Z,6.4
2022-11-23T06:46:02.051Z,6.2
2022-11-23T06:47:24.535Z,6
2022-11-23T06:48:36.126Z,5.7
2022-11-23T06:49:53.069Z,5.5
2022-11-23T06:51:10.086Z,5.3
2022-11-23T06:52:27.073Z,5.1
2022-11-23T06:53:44.082Z,5
2022-11-23T06:55:01.787Z,4.9
2022-11-23T06:56:19.064Z,4.9
2022-11-23T06:57:36.088Z,5.1
2022-11-23T06:58:53.095Z,5.4
2022-11-23T07:00:10.673Z,5.6
2022-11-23T07:01:28.131Z,5.9
2022-11-23T07:02:45.145Z,6
2022-11-23T07:04:02.083Z,5.9
2022-11-23T07:05:19.078Z,5.8
2022-11-23T07:06:36.090Z,5.7
2022-11-23T07:07:53.167Z,5.7
2022-11-23T07:09:10.110Z,5.7
2022-11-23T07:10:27.166Z,5.8
2022-11-23T07:11:44.075Z,5.9
2022-11-23T07:13:02.174Z,5.9
2022-11-23T07:14:19.108Z,5.9
2022-11-23T07:15:36.093Z,5.9
2022-11-23T07:16:53.967Z,5.8
2022-11-23T07:18:11.087Z,5.9
2022-11-23T07:19:28.111Z,6
2022-11-23T07:20:45.166Z,5.9
2022-11-23T07:22:02.089Z,5.8
2022-11-23T07:23:19.157Z,5.6
2022-11-23T07:24:39.620Z,5.5
2022-11-23T07:25:53.107Z,5.5
2022-11-23T07:27:10.153Z,5.6
2022-11-23T07:28:27.132Z,5.7
2022-11-23T07:29:44.190Z,5.8
2022-11-23T07:31:01.130Z,5.9
2022-11-23T07:32:18.105Z,5.9
2022-11-23T07:33:35.116Z,5.9
2022-11-23T07:34:52.130Z,6
2022-11-23T07:36:09.288Z,6.1
2022-11-23T07:37:26.116Z,6.3
2022-11-23T07:38:43.142Z,6.3
2022-11-23T07:40:01.233Z,6.5
2022-11-23T07:41:17.120Z,6.7
2022-11-23T07:42:39.730Z,6.7
2022-11-23T07:43:51.203Z,6.7
2022-11-23T07:45:08.249Z,6.7
2022-11-23T07:46:25.216Z,6.7
2022-11-23T07:47:42.124Z,6.6
2022-11-23T07:48:59.131Z,6.5
2022-11-23T07:50:16.198Z,6.3
2022-11-23T07:51:33.136Z,6.3
2022-11-23T07:52:50.516Z,6.3
2022-11-23T07:54:07.129Z,6.3
2022-11-23T07:55:24.179Z,6.4
2022-11-23T07:56:41.162Z,6.4
2022-11-23T07:57:58.139Z,6.6
2022-11-23T07:59:15.220Z,6.7
2022-11-23T08:00:32.168Z,6.9
2022-11-23T08:01:52.188Z,7.1
2022-11-23T08:03:27.052Z,7.1
2022-11-23T08:04:23.234Z,7.1
2022-11-23T08:05:40.156Z,7.2
2022-11-23T08:06:57.168Z,6.9
2022-11-23T08:08:14.242Z,6.7
2022-11-23T08:09:31.204Z,6.7
2022-11-23T08:10:53.233Z,6.6
2022-11-23T08:12:05.171Z,6.6
2022-11-23T08:13:22.173Z,6.6
2022-11-23T08:14:39.279Z,6.6
2022-11-23T08:15:56.302Z,6.6
2022-11-23T08:17:13.191Z,6.7
2022-11-23T08:18:30.199Z,6.7
2022-11-23T08:19:47.622Z,6.8
2022-11-23T08:21:04.212Z,6.9
2022-11-23T08:22:21.370Z,6.9
2022-11-23T08:23:38.294Z,6.8
2022-11-23T08:24:55.233Z,6.6
2022-11-23T08:26:13.925Z,6.6
2022-11-23T08:27:29.190Z,6.6
2022-11-23T08:28:46.182Z,6.6
2022-11-23T08:30:03.552Z,6.7
2022-11-23T08:31:20.220Z,6.6
2022-11-23T08:32:37.185Z,6.5
2022-11-23T08:33:56.631Z,6.5
2022-11-23T08:35:11.210Z,6.4
2022-11-23T08:36:28.627Z,6.1
2022-11-23T08:37:45.452Z,5.9
2022-11-23T08:39:02.267Z,5.7
2022-11-23T08:40:23.779Z,5.6
2022-11-23T08:41:36.265Z,5.7
2022-11-23T08:42:53.228Z,6.1
2022-11-23T08:44:10.224Z,6.3
2022-11-23T08:45:27.283Z,6.3
2022-11-23T08:46:44.206Z,6.3
2022-11-23T08:48:01.432Z,6.4
2022-11-23T08:49:18.198Z,6.4
2022-11-23T08:50:35.268Z,6.5
2022-11-23T08:51:52.211Z,6.6
2022-11-23T08:53:09.228Z,6.7
2022-11-23T08:54:26.235Z,6.8
2022-11-23T08:55:43.726Z,6.9
2022-11-23T08:57:00.669Z,7
2022-11-23T08:58:17.216Z,7
2022-11-23T08:59:34.371Z,7.1
2022-11-23T09:00:51.440Z,7.1
2022-11-23T09:02:08.276Z,7.1
2022-11-23T09:03:25.316Z,7.1
2022-11-23T09:04:42.300Z,7.2
2022-11-23T09:05:59.235Z,7.3
2022-11-23T09:07:16.321Z,7.6
2022-11-23T09:08:33.236Z,7.7
2022-11-23T09:09:50.407Z,7.8
2022-11-23T09:11:07.243Z,7.9
2022-11-23T09:12:24.269Z,8.1
2022-11-23T09:13:41.248Z,8.2
2022-11-23T09:14:58.276Z,8.4
2022-11-23T09:16:15.315Z,8.6
2022-11-23T09:17:32.245Z,8.6
2022-11-23T09:18:49.241Z,8.6
2022-11-23T09:20:06.294Z,8.5
2022-11-23T09:21:23.330Z,8.5
2022-11-23T09:22:40.689Z,8.4
2022-11-23T09:23:57.286Z,8.2
2022-11-23T09:25:14.324Z,8.1
2022-11-23T09:26:31.289Z,8.2
2022-11-23T09:27:48.257Z,8.3
2022-11-23T09:29:06.324Z,8.2
2022-11-23T09:30:23.475Z,8.2
2022-11-23T09:31:40.293Z,8.2
2022-11-23T09:32:57.314Z,8.1
2022-11-23T09:34:14.320Z,7.9
2022-11-23T09:35:31.290Z,7.7
2022-11-23T09:36:48.273Z,7.7
2022-11-23T09:38:05.286Z,7.7
2022-11-23T09:39:22.292Z,7.7
2022-11-23T09:40:39.303Z,7.7
2022-11-23T09:41:56.277Z,7.6
2022-11-23T09:43:13.379Z,7.6
2022-11-23T09:44:30.696Z,7.7
2022-11-23T09:45:47.548Z,7.8
2022-11-23T09:47:04.486Z,7.7
2022-11-23T09:48:21.305Z,7.5
2022-11-23T09:49:38.565Z,7.4
2022-11-23T09:50:55.349Z,7.4
2022-11-23T09:52:12.306Z,7.3
2022-11-23T09:53:29.633Z,7.2
2022-11-23T09:54:46.297Z,7.3
2022-11-23T09:56:03.332Z,7.6
2022-11-23T09:57:20.382Z,7.9
2022-11-23T09:58:37.332Z,7.9
2022-11-23T09:59:54.401Z,8.2
2022-11-23T10:01:11.561Z,8.3
2022-11-23T10:02:28.329Z,8.5
2022-11-23T10:03:48.672Z,8.7
2022-11-23T10:05:02.742Z,8.9
2022-11-23T10:06:19.351Z,8.7
2022-11-23T10:07:36.328Z,8.5
2022-11-23T10:08:53.456Z,8.1
2022-11-23T10:10:10.348Z,7.8
2022-11-23T10:11:27.368Z,7.7
2022-11-23T10:12:44.324Z,7.5
2022-11-23T10:14:01.521Z,7.4
2022-11-23T10:15:18.350Z,7.6
2022-11-23T10:16:35.358Z,7.6
2022-11-23T10:17:52.623Z,7.6
2022-11-23T10:19:09.340Z,7.6
2022-11-23T10:20:26.415Z,7.7
2022-11-23T10:21:43.359Z,7.5
2022-11-23T10:23:00.375Z,7.3
2022-11-23T10:24:17.329Z,7.2
2022-11-23T10:25:38.840Z,6.9
2022-11-23T10:26:51.414Z,6.7
2022-11-23T10:28:08.334Z,6.6
2022-11-23T10:29:25.375Z,6.6
2022-11-23T10:30:42.634Z,6.5
2022-11-23T10:31:59.380Z,6.5
2022-11-23T10:33:16.399Z,6.4
2022-11-23T10:34:34.136Z,6.3
2022-11-23T10:35:50.415Z,6.1
2022-11-23T10:37:07.372Z,6.3
2022-11-23T10:38:24.671Z,6.4
2022-11-23T10:39:41.352Z,6.6
2022-11-23T10:40:58.357Z,6.8
2022-11-23T10:42:15.386Z,7
2022-11-23T10:43:33.468Z,7.1
2022-11-23T10:44:50.384Z,7.1
2022-11-23T10:46:07.388Z,7
2022-11-23T10:47:24.411Z,7
2022-11-23T10:48:41.424Z,6.9
2022-11-23T10:49:58.370Z,6.9
2022-11-23T10:51:15.367Z,7.1
2022-11-23T10:52:32.794Z,7.4
2022-11-23T10:53:49.362Z,7.9
2022-11-23T10:55:06.367Z,8.1
2022-11-23T10:56:23.401Z,8.3
2022-11-23T10:57:40.596Z,8.4
2022-11-23T10:58:57.376Z,8.6
2022-11-23T11:00:14.534Z,8.6
2022-11-23T11:01:31.543Z,8.5
2022-11-23T11:02:48.532Z,8.3
2022-11-23T11:04:05.445Z,8.3
2022-11-23T11:05:31.468Z,8.3
2022-11-23T11:06:39.435Z,8.5
2022-11-23T11:07:56.438Z,8.7
2022-11-23T11:09:13.692Z,8.7
2022-11-23T11:10:30.401Z,8.6
2022-11-23T11:11:47.429Z,8.6
2022-11-23T11:13:04.399Z,8.6
2022-11-23T11:14:21.817Z,8.8
2022-11-23T11:15:46.814Z,9
2022-11-23T11:16:55.500Z,9
2022-11-23T11:18:12.435Z,8.8
2022-11-23T11:19:29.437Z,8.7
2022-11-23T11:20:46.440Z,8.6
2022-11-23T11:22:03.471Z,8.5
2022-11-23T11:23:20.840Z,8.4
2022-11-23T11:24:37.735Z,8.3
2022-11-23T11:25:54.606Z,8.4
2022-11-23T11:27:11.967Z,8.7
2022-11-23T11:28:28.452Z,9
2022-11-23T11:29:45.419Z,9.6
2022-11-23T11:31:02.890Z,10.3
2022-11-23T11:32:19.487Z,11.1
2022-11-23T11:33:36.672Z,11.9
2022-11-23T11:34:53.449Z,12.5
2022-11-23T11:36:10.432Z,13.2
2022-11-23T11:37:27.510Z,13.5
2022-11-23T11:38:56.287Z,13.8
2022-11-23T11:40:01.499Z,14.2
2022-11-23T11:41:18.444Z,14.4
2022-11-23T11:42:35.601Z,14.9
2022-11-23T11:43:52.592Z,15.5
2022-11-23T11:45:09.710Z,15.9
2022-11-23T11:46:30.264Z,16.4
2022-11-23T11:47:43.442Z,16.6
2022-11-23T11:49:00.502Z,16.4
2022-11-23T11:50:17.504Z,16.2
2022-11-23T11:51:34.466Z,15.9
2022-11-23T11:52:51.487Z,15.4
2022-11-23T11:54:08.519Z,14.9
2022-11-23T11:55:25.528Z,14.6
2022-11-23T11:56:42.679Z,14.4
2022-11-23T11:57:59.472Z,14.5
2022-11-23T11:59:16.513Z,14.5
2022-11-23T12:00:33.492Z,14.5
2022-11-23T12:01:50.459Z,14.3
2022-11-23T12:03:07.571Z,14.2
2022-11-23T12:04:24.466Z,14.1
2022-11-23T12:05:42.238Z,13.7
2022-11-23T12:06:58.470Z,13.1
2022-11-23T12:08:15.474Z,12.5
2022-11-23T12:09:32.997Z,12
2022-11-23T12:10:49.527Z,11.8
2022-11-23T12:12:06.617Z,11.8
2022-11-23T12:13:23.820Z,11.9
2022-11-23T12:14:40.535Z,12.1
2022-11-23T12:15:57.606Z,12.2
2022-11-23T12:17:32.241Z,12.2
2022-11-23T12:18:31.497Z,11.9
2022-11-23T12:19:48.494Z,11.7
2022-11-23T12:21:05.611Z,11.7
2022-11-23T12:22:23.968Z,11.6
2022-11-23T12:23:40.496Z,11.3
2022-11-23T12:24:57.894Z,10.9
2022-11-23T12:26:14.537Z,10.6
2022-11-23T12:27:31.540Z,10.3
2022-11-23T12:28:48.540Z,10
2022-11-23T12:30:05.655Z,9.8
2022-11-23T12:31:22.530Z,9.4
2022-11-23T12:32:39.526Z,9
2022-11-23T12:33:56.516Z,8.7
2022-11-23T12:35:13.857Z,8.4
2022-11-23T12:36:30.627Z,8.3
2022-11-23T12:37:47.573Z,8.2
2022-11-23T12:39:04.514Z,8.2
2022-11-23T12:40:21.528Z,8.4
2022-11-23T12:41:38.580Z,8.5
2022-11-23T12:42:55.557Z,8.5
2022-11-23T12:44:12.986Z,8.4
2022-11-23T12:45:29.523Z,8.3
2022-11-23T12:46:46.776Z,8.3
2022-11-23T12:48:03.814Z,8.5
2022-11-23T12:49:20.750Z,8.9
2022-11-23T12:50:37.541Z,9
2022-11-23T12:51:54.561Z,9
2022-11-23T12:53:11.534Z,8.9
2022-11-23T12:54:28.608Z,8.9
2022-11-23T12:55:45.557Z,8.9
2022-11-23T12:57:03.654Z,8.8
2022-11-23T12:58:20.571Z,8.8
2022-11-23T12:59:37.623Z,8.7
2022-11-23T13:00:54.973Z,8.8
2022-11-23T13:02:11.707Z,8.9
2022-11-23T13:03:28.573Z,8.9
2022-11-23T13:04:45.575Z,9
2022-11-23T13:06:02.996Z,9.2
2022-11-23T13:07:29.643Z,9.3
2022-11-23T13:08:36.669Z,9.4
2022-11-23T13:09:53.592Z,9.6
2022-11-23T13:11:10.628Z,9.9
2022-11-23T13:12:27.555Z,10
2022-11-23T13:13:44.714Z,10.2
2022-11-23T13:15:01.684Z,10.4
2022-11-23T13:16:18.714Z,10.3
2022-11-23T13:17:35.571Z,10
2022-11-23T13:18:53.684Z,9.5
2022-11-23T13:20:10.689Z,9.2
2022-11-23T13:21:27.578Z,9
2022-11-23T13:22:44.634Z,8.8
2022-11-23T13:24:01.599Z,8.6
2022-11-23T13:25:18.627Z,8.5
2022-11-23T13:26:35.591Z,8.3
2022-11-23T13:27:52.654Z,8.1
2022-11-23T13:29:09.637Z,7.9
2022-11-23T13:30:32.076Z,7.7
2022-11-23T13:31:43.806Z,7.7
2022-11-23T13:33:00.623Z,7.7
2022-11-23T13:34:17.627Z,7.9
2022-11-23T13:35:34.670Z,8
2022-11-23T13:38:08.643Z,8.2
2022-11-23T13:39:25.669Z,8.3
2022-11-23T13:40:42.692Z,8.5
2022-11-23T13:42:00.052Z,8.7
2022-11-23T13:43:16.673Z,9
2022-11-23T13:44:35.202Z,9.3
2022-11-23T13:45:51.675Z,9.3
2022-11-23T13:47:08.709Z,9.3
2022-11-23T13:49:42.669Z,9.5
2022-11-23T13:50:59.701Z,9.6
2022-11-23T13:52:16.832Z,9.7
2022-11-23T13:53:33.745Z,9.8
2022-11-23T13:54:50.657Z,9.8
2022-11-23T13:56:07.667Z,9.8
2022-11-23T13:57:24.991Z,9.7
2022-11-23T13:58:41.664Z,9.7
2022-11-23T13:59:59.472Z,9.8
2022-11-23T14:01:16.692Z,9.8
2022-11-23T14:02:33.781Z,9.9
2022-11-23T14:03:50.706Z,10
2022-11-23T14:05:07.742Z,10
2022-11-23T14:06:24.721Z,9.9
2022-11-23T14:07:41.765Z,9.8
2022-11-23T14:08:58.693Z,9.8
2022-11-23T14:10:15.644Z,9.9
2022-11-23T14:11:32.784Z,10
2022-11-23T14:12:49.728Z,10.1
2022-11-23T14:14:06.643Z,10.1
2022-11-23T14:15:23.661Z,10.2
2022-11-23T14:16:40.838Z,10.3
2022-11-23T14:17:57.728Z,10.3
2022-11-23T14:19:14.756Z,10.2
2022-11-23T14:20:31.667Z,10
2022-11-23T14:21:48.711Z,9.8
2022-11-23T14:23:05.823Z,9.5
2022-11-23T14:24:22.743Z,9.4
2022-11-23T14:25:39.707Z,9.2
2022-11-23T14:26:56.665Z,9.1
2022-11-23T14:28:13.701Z,9.2
2022-11-23T14:29:30.735Z,9.3
2022-11-23T14:30:47.703Z,9.4
2022-11-23T14:32:05.158Z,9.5
2022-11-23T14:33:21.692Z,9.6
2022-11-23T14:34:38.720Z,9.7
2022-11-23T14:35:55.965Z,9.9
2022-11-23T14:37:12.681Z,9.9
2022-11-23T14:38:33.345Z,10
2022-11-23T14:39:46.994Z,10
2022-11-23T14:41:03.743Z,10
2022-11-23T14:42:20.690Z,10
2022-11-23T14:43:37.704Z,10.1
2022-11-23T14:44:54.924Z,10
2022-11-23T14:46:11.763Z,10
2022-11-23T14:47:28.801Z,10
2022-11-23T14:48:45.720Z,10.1
2022-11-23T14:50:02.989Z,10.1
2022-11-23T14:51:20.084Z,10.1
2022-11-23T14:52:36.760Z,10
2022-11-23T14:53:53.752Z,9.9
2022-11-23T14:55:11.115Z,9.9
2022-11-23T14:56:27.768Z,9.8
2022-11-23T14:57:44.759Z,9.8
2022-11-23T14:59:01.713Z,9.8
2022-11-23T15:00:18.713Z,9.8
2022-11-23T15:01:35.807Z,9.7
2022-11-23T15:02:52.785Z,9.7
2022-11-23T15:04:10.359Z,9.6
2022-11-23T15:05:26.830Z,9.6
2022-11-23T15:06:45.695Z,9.5
2022-11-23T15:08:00.798Z,9.5
2022-11-23T15:09:17.726Z,9.4
2022-11-23T15:10:34.827Z,9.2
2022-11-23T15:11:51.801Z,9.1
2022-11-23T15:13:12.308Z,8.9
2022-11-23T15:14:25.740Z,8.7
2022-11-23T15:15:42.781Z,8.6
2022-11-23T15:16:59.863Z,8.5
2022-11-23T15:18:16.763Z,8.4
2022-11-23T15:19:33.736Z,8.5
2022-11-23T15:20:50.743Z,8.6
2022-11-23T15:22:07.770Z,8.7
2022-11-23T15:23:25.047Z,8.8
2022-11-23T15:24:41.795Z,8.9
2022-11-23T15:25:59.837Z,9
2022-11-23T15:27:16.897Z,9.1
2022-11-23T15:28:33.740Z,9.2
2022-11-23T15:29:50.882Z,9.2
2022-11-23T15:31:07.799Z,9.3
2022-11-23T15:32:33.629Z,9.2
2022-11-23T15:33:41.791Z,9.1
2022-11-23T15:34:58.801Z,9.2
2022-11-23T15:36:15.858Z,9.2
2022-11-23T15:37:32.807Z,9.2
2022-11-23T15:38:49.833Z,9.2
2022-11-23T15:40:06.954Z,9.2
2022-11-23T15:41:23.828Z,9.2
2022-11-23T15:42:40.800Z,9.3
2022-11-23T15:43:57.867Z,9.3
2022-11-23T15:45:14.884Z,9.2
2022-11-23T15:46:31.861Z,9.2
2022-11-23T15:47:48.827Z,9.2
2022-11-23T15:49:05.782Z,9.2
2022-11-23T15:50:22.852Z,9.1
2022-11-23T15:51:39.853Z,9
2022-11-23T15:52:56.824Z,9
2022-11-23T15:54:13.798Z,9
2022-11-23T15:55:30.843Z,9
2022-11-23T15:56:47.838Z,8.8
2022-11-23T15:58:04.827Z,8.7
2022-11-23T15:59:21.790Z,8.5
2022-11-23T16:00:38.825Z,8.2
2022-11-23T16:01:56.042Z,8
2022-11-23T16:03:12.900Z,7.8
2022-11-23T16:04:29.810Z,7.6
2022-11-23T16:05:46.848Z,7.6
2022-11-23T16:07:03.821Z,7.7
2022-11-23T16:08:20.838Z,7.9
2022-11-23T16:09:53.840Z,8.1
2022-11-23T16:10:54.821Z,8.2
2022-11-23T16:12:11.880Z,8.3
2022-11-23T16:13:28.835Z,8.3
2022-11-23T16:14:45.828Z,8.2
2022-11-23T16:16:03.036Z,8.1
2022-11-23T16:17:19.934Z,8.1
2022-11-23T16:18:36.837Z,8.1
2022-11-23T16:19:53.853Z,8.2
2022-11-23T16:21:10.854Z,8.3
2022-11-23T16:22:27.828Z,8.4
2022-11-23T16:23:44.812Z,8.4
2022-11-23T16:25:01.840Z,8.4
2022-11-23T16:26:18.902Z,8.4
2022-11-23T16:27:35.857Z,8.4
2022-11-23T16:28:52.831Z,8.3
2022-11-23T16:30:10.230Z,8.3
2022-11-23T16:31:26.976Z,8.2
2022-11-23T16:32:43.831Z,8.2
2022-11-23T16:34:00.851Z,8.2
2022-11-23T16:35:18.055Z,8
2022-11-23T16:36:34.900Z,7.8
2022-11-23T16:37:52.119Z,7.6
2022-11-23T16:39:08.843Z,7.3
2022-11-23T16:40:25.833Z,7.2
2022-11-23T16:41:42.929Z,7.2
2022-11-23T16:42:59.874Z,7.1
2022-11-23T16:44:17.173Z,7
2022-11-23T16:45:34.165Z,6.8
2022-11-23T16:46:50.960Z,6.7
2022-11-23T16:48:07.857Z,6.5
2022-11-23T16:49:24.871Z,6.4
2022-11-23T16:50:41.861Z,6.5
2022-11-23T16:51:58.889Z,6.6
2022-11-23T16:53:15.879Z,6.8
2022-11-23T16:54:32.939Z,6.9
2022-11-23T16:55:49.878Z,7
2022-11-23T16:57:07.079Z,7.2
2022-11-23T16:58:23.951Z,7.2
2022-11-23T16:59:40.886Z,7.4
2022-11-23T17:00:58.288Z,7.5
2022-11-23T17:02:14.890Z,7.5
2022-11-23T17:03:31.891Z,7.5
2022-11-23T17:04:49.032Z,7.3
2022-11-23T17:06:05.880Z,7.2
2022-11-23T17:07:23.016Z,7.1
2022-11-23T17:08:40.167Z,7.1
2022-11-23T17:09:56.979Z,7.1
2022-11-23T17:11:13.935Z,7.2
2022-11-23T17:12:30.928Z,7.2
2022-11-23T17:13:47.908Z,7.2
2022-11-23T17:20:38.961Z,7.4
2022-11-23T17:21:55.929Z,7.4
2022-11-23T17:23:12.901Z,7.4
2022-11-23T17:24:30.296Z,7.3
2022-11-23T17:25:46.940Z,7.1
2022-11-23T17:27:03.900Z,6.8
2022-11-23T17:28:20.983Z,6.6
2022-11-23T17:29:41.804Z,6.4
2022-11-23T17:30:55.023Z,6.2
2022-11-23T17:32:11.914Z,6.2
2022-11-23T17:33:28.978Z,6.2
2022-11-23T17:34:45.946Z,6.3
2022-11-23T17:36:03.049Z,6.5
2022-11-23T17:37:20.016Z,6.6
2022-11-23T17:38:37.069Z,6.7
2022-11-23T17:39:54.029Z,6.8
2022-11-23T17:41:11.024Z,6.9
2022-11-23T17:42:28.191Z,6.9
2022-11-23T17:43:44.937Z,7
2022-11-23T17:45:02.005Z,7
2022-11-23T17:46:18.974Z,7
2022-11-23T17:47:35.934Z,7
2022-11-23T17:48:52.933Z,7
2022-11-23T17:50:10.166Z,7.1
2022-11-23T17:51:27.091Z,7
2022-11-23T17:52:43.939Z,6.9
2022-11-23T17:54:00.961Z,6.9